PWSweather.com
Personal Weather Stations
Station Observations
PWSLORIS
The Farm At Fox Bay, Loris, SC 29569

The Farm At Fox BayLoris, SC 29569

Lat: 34.067097, Lon: -78.86907

Elevation: 108

Station Type: Davis Vantage Pro2 with 24 hr. FARS and solar

http://www.lorisweather.com

Latest ConditionsUpdated 7:00:00 AM EST Tuesday, Dec 6, 2016
Currently Today's Max Today's Min Today's Average
Temperature 49.8°F9.9°C 53.2°F11.8°C 48.2°F9.0°C 49.8°F9.9°C
Dew Point 49.0°F9.4°C 52.1°F11.2°C 47.1°F8.4°C 48.7°F9.3°C
Winds 5.0 mph SE8.0 kmh SE 9.0 mph E14.5 kmh E - 4.3 mph 6.9 kmh
Wind Gusts 8.0 mph12.9 kmh 13.0 mph20.9 kmh - -
Humidity 97% 97% 95% 96%
Pressure 29.84 in1010.5 mb 30.02 in1016.6 mb 29.84 in1010.5 mb -
Precipitation - 0.42 in10.7 mm - -
Hour Temp Dew Point Humidity Winds Wind Gusts Pressure Precip Precip Rate Daily Precip Total
07:00 AM 49.8°F9.9°C 49.0°F9.4°C 97% 5.0 mph SE8.0 kmh SE 8.0 mph12.9 kmh 29.84 in1010.5 mb - 0.03 in0.8 mm 0.42 in10.7 mm
06:45 AM 49.7°F9.8°C 48.9°F9.4°C 97% 2.2 mph E3.5 kmh E 4.0 mph6.4 kmh 29.86 in1011.2 mb - 0.03 in0.8 mm 0.40 in10.2 mm
06:30 AM 49.6°F9.8°C 48.8°F9.3°C 97% 0.8 mph E1.3 kmh E 3.0 mph4.8 kmh 29.87 in1011.5 mb - 0.03 in0.8 mm 0.37 in9.4 mm
06:15 AM 49.4°F9.7°C 48.6°F9.2°C 97% Calm Calm 2.0 mph3.2 kmh 29.88 in1011.9 mb - 0.00 in0.0 mm 0.34 in8.6 mm
06:00 AM 49.2°F9.6°C 48.1°F8.9°C 96% 2.4 mph E3.9 kmh E 5.0 mph8.0 kmh 29.87 in1011.5 mb - 0.01 in0.3 mm 0.34 in8.6 mm
05:45 AM 49.0°F9.4°C 47.9°F8.8°C 96% 2.2 mph E3.5 kmh E 7.0 mph11.3 kmh 29.88 in1011.9 mb - 0.00 in0.0 mm 0.33 in8.4 mm
05:30 AM 48.7°F9.3°C 47.6°F8.7°C 96% 4.4 mph E7.1 kmh E 10.0 mph16.1 kmh 29.87 in1011.5 mb - 0.01 in0.3 mm 0.33 in8.4 mm
05:15 AM 48.6°F9.2°C 47.5°F8.6°C 96% 4.4 mph ENE7.1 kmh ENE 8.0 mph12.9 kmh 29.88 in1011.9 mb - 0.00 in0.0 mm 0.32 in8.1 mm
05:00 AM 48.5°F9.2°C 47.4°F8.6°C 96% 5.0 mph ENE8.0 kmh ENE 9.0 mph14.5 kmh 29.89 in1012.2 mb - 0.00 in0.0 mm 0.32 in8.1 mm
04:45 AM 48.3°F9.1°C 47.2°F8.4°C 96% 2.8 mph E4.5 kmh E 8.0 mph12.9 kmh 29.89 in1012.2 mb - 0.00 in0.0 mm 0.32 in8.1 mm
04:30 AM 48.3°F9.1°C 47.2°F8.4°C 96% 1.8 mph E2.9 kmh E 7.0 mph11.3 kmh 29.90 in1012.5 mb - 0.00 in0.0 mm 0.32 in8.1 mm
04:15 AM 48.2°F9.0°C 47.1°F8.4°C 96% 9.0 mph E14.5 kmh E 13.0 mph20.9 kmh 29.89 in1012.2 mb - 0.00 in0.0 mm 0.32 in8.1 mm
04:00 AM 48.3°F9.1°C 47.2°F8.4°C 96% 6.2 mph ENE10.0 kmh ENE 10.0 mph16.1 kmh 29.91 in1012.9 mb - 0.00 in0.0 mm 0.32 in8.1 mm
03:45 AM 48.3°F9.1°C 47.2°F8.4°C 96% 8.7 mph E14.0 kmh E 13.0 mph20.9 kmh 29.93 in1013.5 mb - 0.01 in0.3 mm 0.32 in8.1 mm
03:30 AM 48.4°F9.1°C 47.3°F8.5°C 96% 5.8 mph E9.3 kmh E 9.0 mph14.5 kmh 29.94 in1013.9 mb - 0.00 in0.0 mm 0.31 in7.9 mm
03:15 AM 48.6°F9.2°C 47.5°F8.6°C 96% 7.4 mph ENE11.9 kmh ENE 10.0 mph16.1 kmh 29.95 in1014.2 mb - 0.00 in0.0 mm 0.31 in7.9 mm
03:00 AM 48.8°F9.3°C 47.7°F8.7°C 96% 6.3 mph NE10.1 kmh NE 8.0 mph12.9 kmh 29.96 in1014.6 mb - 0.00 in0.0 mm 0.31 in7.9 mm
02:45 AM 49.3°F9.6°C 48.2°F9.0°C 96% 3.9 mph NE6.3 kmh NE 7.0 mph11.3 kmh 29.96 in1014.6 mb - 0.00 in0.0 mm 0.31 in7.9 mm
02:30 AM 49.4°F9.7°C 48.3°F9.1°C 96% 6.9 mph NE11.1 kmh NE 13.0 mph20.9 kmh 29.97 in1014.9 mb - 0.01 in0.3 mm 0.31 in7.9 mm
02:15 AM 49.4°F9.7°C 48.3°F9.1°C 96% 5.4 mph E8.7 kmh E 10.0 mph16.1 kmh 29.98 in1015.2 mb - 0.03 in0.8 mm 0.30 in7.6 mm
02:00 AM 49.5°F9.7°C 48.4°F9.1°C 96% 5.4 mph ENE8.7 kmh ENE 11.0 mph17.7 kmh 29.99 in1015.6 mb - 0.05 in1.3 mm 0.27 in6.9 mm
01:45 AM 49.8°F9.9°C 48.4°F9.1°C 95% 2.1 mph ENE3.4 kmh ENE 3.0 mph4.8 kmh 30.00 in1015.9 mb - 0.04 in1.0 mm 0.22 in5.6 mm
01:30 AM 50.8°F10.4°C 49.4°F9.7°C 95% 4.5 mph NE7.2 kmh NE 8.0 mph12.9 kmh 29.99 in1015.6 mb - 0.05 in1.3 mm 0.18 in4.6 mm
01:15 AM 51.7°F10.9°C 50.3°F10.2°C 95% 2.1 mph ENE3.4 kmh ENE 7.0 mph11.3 kmh 30.02 in1016.6 mb - 0.05 in1.3 mm 0.13 in3.3 mm
01:00 AM 52.7°F11.5°C 51.5°F10.8°C 96% 2.9 mph NE4.7 kmh NE 7.0 mph11.3 kmh 30.00 in1015.9 mb - 0.03 in0.8 mm 0.08 in2.0 mm
12:45 AM 52.8°F11.6°C 51.7°F10.9°C 96% 5.3 mph ENE8.5 kmh ENE 9.0 mph14.5 kmh 30.00 in1015.9 mb - 0.02 in0.5 mm 0.05 in1.3 mm
12:30 AM 53.1°F11.7°C 51.9°F11.1°C 96% 4.2 mph ENE6.8 kmh ENE 6.0 mph9.7 kmh 30.00 in1015.9 mb - 0.01 in0.3 mm 0.03 in0.8 mm
12:15 AM 53.2°F11.8°C 52.1°F11.2°C 96% 4.4 mph NE7.1 kmh NE 7.0 mph11.3 kmh 30.00 in1015.9 mb - 0.02 in0.5 mm 0.02 in0.5 mm
12:00 AM 53.2°F11.8°C 52.1°F11.2°C 96% 4.0 mph ENE6.4 kmh ENE 6.0 mph9.7 kmh 30.00 in1015.9 mb - 0.00 in0.0 mm 0.00 in0.0 mm